sensor_id;sensor_type;location;lat;lon;timestamp;temperature;humidity
68924;DHT22;55961;52.156;20.942;2024-01-30T00:01:44;-0.40;92.50
68924;DHT22;55961;52.156;20.942;2024-01-30T00:04:10;-0.40;93.10
68924;DHT22;55961;52.156;20.942;2024-01-30T00:06:36;-0.40;93.40
68924;DHT22;55961;52.156;20.942;2024-01-30T00:09:02;-0.40;93.70
68924;DHT22;55961;52.156;20.942;2024-01-30T00:11:28;-0.40;94.10
68924;DHT22;55961;52.156;20.942;2024-01-30T00:13:54;-0.50;94.40
68924;DHT22;55961;52.156;20.942;2024-01-30T00:16:25;-0.50;94.90
68924;DHT22;55961;52.156;20.942;2024-01-30T00:18:54;-0.50;95.20
68924;DHT22;55961;52.156;20.942;2024-01-30T00:21:22;-0.50;95.60
68924;DHT22;55961;52.156;20.942;2024-01-30T00:23:49;-0.50;96.10
68924;DHT22;55961;52.156;20.942;2024-01-30T00:26:15;-0.50;96.30
68924;DHT22;55961;52.156;20.942;2024-01-30T00:28:42;-0.60;96.30
68924;DHT22;55961;52.156;20.942;2024-01-30T00:31:08;-0.50;96.40
68924;DHT22;55961;52.156;20.942;2024-01-30T00:33:38;-0.50;96.40
68924;DHT22;55961;52.156;20.942;2024-01-30T00:36:05;-0.50;96.30
68924;DHT22;55961;52.156;20.942;2024-01-30T00:38:32;-0.50;96.60
68924;DHT22;55961;52.156;20.942;2024-01-30T00:40:58;-0.50;96.80
68924;DHT22;55961;52.156;20.942;2024-01-30T00:43:24;-0.50;96.70
68924;DHT22;55961;52.156;20.942;2024-01-30T00:45:50;-0.50;96.60
68924;DHT22;55961;52.156;20.942;2024-01-30T00:48:18;-0.60;96.60
68924;DHT22;55961;52.156;20.942;2024-01-30T00:50:44;-0.50;96.50
68924;DHT22;55961;52.156;20.942;2024-01-30T00:53:10;-0.60;96.50
68924;DHT22;55961;52.156;20.942;2024-01-30T00:55:36;-0.60;96.40
68924;DHT22;55961;52.156;20.942;2024-01-30T00:58:02;-0.60;96.30
68924;DHT22;55961;52.156;20.942;2024-01-30T01:00:28;-0.60;96.30
68924;DHT22;55961;52.156;20.942;2024-01-30T01:02:55;-0.50;96.10
68924;DHT22;55961;52.156;20.942;2024-01-30T01:05:21;-0.60;96.20
68924;DHT22;55961;52.156;20.942;2024-01-30T01:07:48;-0.60;96.30
68924;DHT22;55961;52.156;20.942;2024-01-30T01:10:15;-0.60;96.40
68924;DHT22;55961;52.156;20.942;2024-01-30T01:12:42;-0.60;96.40
68924;DHT22;55961;52.156;20.942;2024-01-30T01:15:08;-0.60;96.60
68924;DHT22;55961;52.156;20.942;2024-01-30T01:17:36;-0.60;96.70
68924;DHT22;55961;52.156;20.942;2024-01-30T01:20:03;-0.60;96.70
68924;DHT22;55961;52.156;20.942;2024-01-30T01:22:31;-0.60;96.60
68924;DHT22;55961;52.156;20.942;2024-01-30T01:24:57;-0.60;96.60
68924;DHT22;55961;52.156;20.942;2024-01-30T01:27:23;-0.60;96.30
68924;DHT22;55961;52.156;20.942;2024-01-30T01:29:48;-0.60;96.40
68924;DHT22;55961;52.156;20.942;2024-01-30T01:32:14;-0.60;96.20
68924;DHT22;55961;52.156;20.942;2024-01-30T01:34:40;-0.60;96.00
68924;DHT22;55961;52.156;20.942;2024-01-30T01:37:06;-0.60;95.90
68924;DHT22;55961;52.156;20.942;2024-01-30T01:39:33;-0.60;95.80
68924;DHT22;55961;52.156;20.942;2024-01-30T01:41:59;-0.60;95.60
68924;DHT22;55961;52.156;20.942;2024-01-30T01:44:25;-0.70;95.50
68924;DHT22;55961;52.156;20.942;2024-01-30T01:46:52;-0.70;95.40
68924;DHT22;55961;52.156;20.942;2024-01-30T01:49:18;-0.70;95.10
68924;DHT22;55961;52.156;20.942;2024-01-30T01:51:46;-0.80;95.10
68924;DHT22;55961;52.156;20.942;2024-01-30T01:54:14;-0.80;94.90
68924;DHT22;55961;52.156;20.942;2024-01-30T01:56:40;-0.80;94.80
68924;DHT22;55961;52.156;20.942;2024-01-30T01:59:08;-0.90;94.70
68924;DHT22;55961;52.156;20.942;2024-01-30T02:01:36;-0.90;94.60
68924;DHT22;55961;52.156;20.942;2024-01-30T02:04:02;-0.90;94.80
68924;DHT22;55961;52.156;20.942;2024-01-30T02:06:28;-1.00;95.10
68924;DHT22;55961;52.156;20.942;2024-01-30T02:08:54;-1.00;95.00
68924;DHT22;55961;52.156;20.942;2024-01-30T02:11:22;-1.00;95.40
68924;DHT22;55961;52.156;20.942;2024-01-30T02:13:49;-1.00;95.60
68924;DHT22;55961;52.156;20.942;2024-01-30T02:16:15;-1.00;95.70
68924;DHT22;55961;52.156;20.942;2024-01-30T02:18:42;-1.00;96.20
68924;DHT22;55961;52.156;20.942;2024-01-30T02:21:11;-1.00;96.20
68924;DHT22;55961;52.156;20.942;2024-01-30T02:23:38;-1.00;96.60
68924;DHT22;55961;52.156;20.942;2024-01-30T02:26:05;-1.00;96.90
68924;DHT22;55961;52.156;20.942;2024-01-30T02:28:31;-1.00;96.80
68924;DHT22;55961;52.156;20.942;2024-01-30T02:30:57;-1.00;96.70
68924;DHT22;55961;52.156;20.942;2024-01-30T02:33:23;-1.00;97.00
68924;DHT22;55961;52.156;20.942;2024-01-30T02:35:49;-1.00;97.20
68924;DHT22;55961;52.156;20.942;2024-01-30T02:38:16;-1.00;97.50
68924;DHT22;55961;52.156;20.942;2024-01-30T02:40:42;-1.00;97.30
68924;DHT22;55961;52.156;20.942;2024-01-30T02:43:08;-1.00;97.30
68924;DHT22;55961;52.156;20.942;2024-01-30T02:45:34;-1.00;97.50
68924;DHT22;55961;52.156;20.942;2024-01-30T02:48:00;-1.00;97.70
68924;DHT22;55961;52.156;20.942;2024-01-30T02:50:26;-1.00;97.50
68924;DHT22;55961;52.156;20.942;2024-01-30T02:52:52;-1.00;97.60
68924;DHT22;55961;52.156;20.942;2024-01-30T02:55:19;-1.00;97.50
68924;DHT22;55961;52.156;20.942;2024-01-30T02:57:45;-1.00;97.40
68924;DHT22;55961;52.156;20.942;2024-01-30T03:00:11;-1.00;97.40
68924;DHT22;55961;52.156;20.942;2024-01-30T03:02:37;-1.00;97.40
68924;DHT22;55961;52.156;20.942;2024-01-30T03:05:05;-1.00;97.40
68924;DHT22;55961;52.156;20.942;2024-01-30T03:07:31;-1.00;97.40
68924;DHT22;55961;52.156;20.942;2024-01-30T03:09:57;-1.00;97.50
68924;DHT22;55961;52.156;20.942;2024-01-30T03:12:23;-1.00;97.40
68924;DHT22;55961;52.156;20.942;2024-01-30T03:14:49;-1.00;97.40
68924;DHT22;55961;52.156;20.942;2024-01-30T03:17:15;-1.00;97.30
68924;DHT22;55961;52.156;20.942;2024-01-30T03:19:41;-1.00;97.30
68924;DHT22;55961;52.156;20.942;2024-01-30T03:22:07;-1.10;97.30
68924;DHT22;55961;52.156;20.942;2024-01-30T03:24:33;-1.10;97.20
68924;DHT22;55961;52.156;20.942;2024-01-30T03:26:59;-1.10;97.10
68924;DHT22;55961;52.156;20.942;2024-01-30T03:29:25;-1.10;97.10
68924;DHT22;55961;52.156;20.942;2024-01-30T03:31:51;-1.10;97.20
68924;DHT22;55961;52.156;20.942;2024-01-30T03:34:17;-1.10;97.00
68924;DHT22;55961;52.156;20.942;2024-01-30T03:36:43;-1.10;97.00
68924;DHT22;55961;52.156;20.942;2024-01-30T03:39:09;-1.10;97.00
68924;DHT22;55961;52.156;20.942;2024-01-30T03:41:35;-1.10;97.00
68924;DHT22;55961;52.156;20.942;2024-01-30T03:44:01;-1.10;96.90
68924;DHT22;55961;52.156;20.942;2024-01-30T03:46:26;-1.10;96.90
68924;DHT22;55961;52.156;20.942;2024-01-30T03:48:52;-1.20;97.00
68924;DHT22;55961;52.156;20.942;2024-01-30T03:51:18;-1.20;97.20
68924;DHT22;55961;52.156;20.942;2024-01-30T03:53:44;-1.20;97.40
68924;DHT22;55961;52.156;20.942;2024-01-30T03:56:12;-1.20;97.50
68924;DHT22;55961;52.156;20.942;2024-01-30T03:58:39;-1.20;97.80
68924;DHT22;55961;52.156;20.942;2024-01-30T04:01:05;-1.20;98.10
68924;DHT22;55961;52.156;20.942;2024-01-30T04:03:31;-1.20;98.40
68924;DHT22;55961;52.156;20.942;2024-01-30T04:05:57;-1.20;98.70
68924;DHT22;55961;52.156;20.942;2024-01-30T04:08:23;-1.20;98.90
68924;DHT22;55961;52.156;20.942;2024-01-30T04:10:49;-1.20;99.20
68924;DHT22;55961;52.156;20.942;2024-01-30T04:13:15;-1.20;99.20
68924;DHT22;55961;52.156;20.942;2024-01-30T04:15:41;-1.10;99.30
68924;DHT22;55961;52.156;20.942;2024-01-30T04:18:07;-1.10;99.30
68924;DHT22;55961;52.156;20.942;2024-01-30T04:20:32;-1.10;99.30
68924;DHT22;55961;52.156;20.942;2024-01-30T04:22:59;-1.10;99.50
68924;DHT22;55961;52.156;20.942;2024-01-30T04:25:24;-1.10;99.60
68924;DHT22;55961;52.156;20.942;2024-01-30T04:27:50;-1.10;99.40
68924;DHT22;55961;52.156;20.942;2024-01-30T04:30:16;-1.10;99.30
68924;DHT22;55961;52.156;20.942;2024-01-30T04:32:43;-1.10;99.40
68924;DHT22;55961;52.156;20.942;2024-01-30T04:35:10;-1.10;99.40
68924;DHT22;55961;52.156;20.942;2024-01-30T04:37:36;-1.10;99.30
68924;DHT22;55961;52.156;20.942;2024-01-30T04:40:02;-1.10;99.30
68924;DHT22;55961;52.156;20.942;2024-01-30T04:42:29;-1.10;99.40
68924;DHT22;55961;52.156;20.942;2024-01-30T04:44:54;-1.10;99.40
68924;DHT22;55961;52.156;20.942;2024-01-30T04:47:20;-1.10;99.40
68924;DHT22;55961;52.156;20.942;2024-01-30T04:49:46;-1.00;99.60
68924;DHT22;55961;52.156;20.942;2024-01-30T04:52:12;-1.00;99.40
68924;DHT22;55961;52.156;20.942;2024-01-30T04:54:38;-1.00;99.40
68924;DHT22;55961;52.156;20.942;2024-01-30T04:57:04;-1.00;99.20
68924;DHT22;55961;52.156;20.942;2024-01-30T04:59:34;-1.00;99.20
68924;DHT22;55961;52.156;20.942;2024-01-30T05:02:00;-1.00;99.10
68924;DHT22;55961;52.156;20.942;2024-01-30T05:04:25;-1.00;99.00
68924;DHT22;55961;52.156;20.942;2024-01-30T05:06:51;-1.00;99.00
68924;DHT22;55961;52.156;20.942;2024-01-30T05:09:17;-1.00;98.90
68924;DHT22;55961;52.156;20.942;2024-01-30T05:11:44;-1.00;99.00
68924;DHT22;55961;52.156;20.942;2024-01-30T05:14:10;-1.10;99.10
68924;DHT22;55961;52.156;20.942;2024-01-30T05:16:37;-1.10;99.10
68924;DHT22;55961;52.156;20.942;2024-01-30T05:19:03;-1.00;99.00
68924;DHT22;55961;52.156;20.942;2024-01-30T05:21:29;-1.10;99.10
68924;DHT22;55961;52.156;20.942;2024-01-30T05:23:55;-1.10;99.10
68924;DHT22;55961;52.156;20.942;2024-01-30T05:26:21;-1.10;99.10
68924;DHT22;55961;52.156;20.942;2024-01-30T05:28:48;-1.10;99.20
68924;DHT22;55961;52.156;20.942;2024-01-30T05:31:14;-1.00;99.20
68924;DHT22;55961;52.156;20.942;2024-01-30T05:33:41;-1.00;99.10
68924;DHT22;55961;52.156;20.942;2024-01-30T05:36:07;-1.00;99.20
68924;DHT22;55961;52.156;20.942;2024-01-30T05:38:33;-1.10;99.40
68924;DHT22;55961;52.156;20.942;2024-01-30T05:40:59;-1.00;99.30
68924;DHT22;55961;52.156;20.942;2024-01-30T05:43:25;-1.00;99.10
68924;DHT22;55961;52.156;20.942;2024-01-30T05:45:51;-1.00;99.10
68924;DHT22;55961;52.156;20.942;2024-01-30T05:48:18;-1.00;99.20
68924;DHT22;55961;52.156;20.942;2024-01-30T05:50:44;-1.00;98.90
68924;DHT22;55961;52.156;20.942;2024-01-30T05:53:11;-1.00;99.00
68924;DHT22;55961;52.156;20.942;2024-01-30T05:55:37;-1.00;98.90
68924;DHT22;55961;52.156;20.942;2024-01-30T05:58:03;-1.10;98.80
68924;DHT22;55961;52.156;20.942;2024-01-30T06:00:30;-1.10;98.70
68924;DHT22;55961;52.156;20.942;2024-01-30T06:02:55;-1.10;98.70
68924;DHT22;55961;52.156;20.942;2024-01-30T06:05:21;-1.10;98.60
68924;DHT22;55961;52.156;20.942;2024-01-30T06:07:47;-1.10;98.60
68924;DHT22;55961;52.156;20.942;2024-01-30T06:10:13;-1.10;98.50
68924;DHT22;55961;52.156;20.942;2024-01-30T06:12:40;-1.10;98.40
68924;DHT22;55961;52.156;20.942;2024-01-30T06:15:06;-1.10;98.50
68924;DHT22;55961;52.156;20.942;2024-01-30T06:17:32;-1.10;98.40
68924;DHT22;55961;52.156;20.942;2024-01-30T06:19:58;-1.10;98.50
68924;DHT22;55961;52.156;20.942;2024-01-30T06:22:24;-1.10;98.70
68924;DHT22;55961;52.156;20.942;2024-01-30T06:24:51;-1.10;98.70
68924;DHT22;55961;52.156;20.942;2024-01-30T06:27:16;-1.10;98.70
68924;DHT22;55961;52.156;20.942;2024-01-30T06:29:43;-1.10;98.80
68924;DHT22;55961;52.156;20.942;2024-01-30T06:32:09;-1.10;98.70
68924;DHT22;55961;52.156;20.942;2024-01-30T06:34:35;-1.10;98.70
68924;DHT22;55961;52.156;20.942;2024-01-30T06:37:01;-1.10;98.70
68924;DHT22;55961;52.156;20.942;2024-01-30T06:39:27;-1.00;98.70
68924;DHT22;55961;52.156;20.942;2024-01-30T06:41:53;-1.00;98.80
68924;DHT22;55961;52.156;20.942;2024-01-30T06:44:19;-1.10;98.70
68924;DHT22;55961;52.156;20.942;2024-01-30T06:46:45;-1.00;98.70
68924;DHT22;55961;52.156;20.942;2024-01-30T06:49:11;-1.00;98.70
68924;DHT22;55961;52.156;20.942;2024-01-30T06:51:37;-1.00;98.50
68924;DHT22;55961;52.156;20.942;2024-01-30T06:54:03;-1.00;98.70
68924;DHT22;55961;52.156;20.942;2024-01-30T06:56:29;-0.90;98.60
68924;DHT22;55961;52.156;20.942;2024-01-30T06:58:56;-1.00;98.60
68924;DHT22;55961;52.156;20.942;2024-01-30T07:01:33;-0.90;98.50
68924;DHT22;55961;52.156;20.942;2024-01-30T07:03:59;-0.90;98.60
68924;DHT22;55961;52.156;20.942;2024-01-30T07:06:24;-0.90;98.40
68924;DHT22;55961;52.156;20.942;2024-01-30T07:08:50;-0.90;98.30
68924;DHT22;55961;52.156;20.942;2024-01-30T07:11:20;-0.90;98.30
68924;DHT22;55961;52.156;20.942;2024-01-30T07:13:48;-0.90;98.20
68924;DHT22;55961;52.156;20.942;2024-01-30T07:16:15;-0.80;98.20
68924;DHT22;55961;52.156;20.942;2024-01-30T07:18:41;-0.80;98.10
68924;DHT22;55961;52.156;20.942;2024-01-30T07:21:07;-0.80;98.10
68924;DHT22;55961;52.156;20.942;2024-01-30T07:23:33;-0.80;98.00
68924;DHT22;55961;52.156;20.942;2024-01-30T07:26:01;-0.80;97.90
68924;DHT22;55961;52.156;20.942;2024-01-30T07:28:27;-0.80;97.90
68924;DHT22;55961;52.156;20.942;2024-01-30T07:30:53;-0.70;97.90
68924;DHT22;55961;52.156;20.942;2024-01-30T07:33:19;-0.70;98.00
68924;DHT22;55961;52.156;20.942;2024-01-30T07:35:45;-0.70;98.00
68924;DHT22;55961;52.156;20.942;2024-01-30T07:38:12;-0.70;98.10
68924;DHT22;55961;52.156;20.942;2024-01-30T07:40:37;-0.60;98.10
68924;DHT22;55961;52.156;20.942;2024-01-30T07:43:04;-0.60;98.10
68924;DHT22;55961;52.156;20.942;2024-01-30T07:45:30;-0.50;98.10
68924;DHT22;55961;52.156;20.942;2024-01-30T07:47:59;-0.50;98.20
68924;DHT22;55961;52.156;20.942;2024-01-30T07:50:28;-0.40;98.20
68924;DHT22;55961;52.156;20.942;2024-01-30T07:52:56;-0.40;98.10
68924;DHT22;55961;52.156;20.942;2024-01-30T07:55:22;-0.40;98.10
68924;DHT22;55961;52.156;20.942;2024-01-30T07:57:55;-0.30;97.90
68924;DHT22;55961;52.156;20.942;2024-01-30T08:00:21;-0.20;97.90
68924;DHT22;55961;52.156;20.942;2024-01-30T08:02:47;-0.10;97.70
68924;DHT22;55961;52.156;20.942;2024-01-30T08:05:14;-0.10;97.70
68924;DHT22;55961;52.156;20.942;2024-01-30T08:07:43;0.00;97.50
68924;DHT22;55961;52.156;20.942;2024-01-30T08:10:11;0.00;97.40
68924;DHT22;55961;52.156;20.942;2024-01-30T08:12:38;0.10;97.20
68924;DHT22;55961;52.156;20.942;2024-01-30T08:15:04;0.20;97.10
68924;DHT22;55961;52.156;20.942;2024-01-30T08:17:31;0.30;96.80
68924;DHT22;55961;52.156;20.942;2024-01-30T08:19:57;0.40;96.40
68924;DHT22;55961;52.156;20.942;2024-01-30T08:22:23;0.50;95.70
68924;DHT22;55961;52.156;20.942;2024-01-30T08:24:48;0.60;94.70
68924;DHT22;55961;52.156;20.942;2024-01-30T08:27:15;0.60;94.20
68924;DHT22;55961;52.156;20.942;2024-01-30T08:29:40;0.70;93.70
68924;DHT22;55961;52.156;20.942;2024-01-30T08:32:06;0.80;93.50
68924;DHT22;55961;52.156;20.942;2024-01-30T08:34:33;0.90;93.00
68924;DHT22;55961;52.156;20.942;2024-01-30T08:36:59;1.00;92.40
68924;DHT22;55961;52.156;20.942;2024-01-30T08:39:25;1.10;92.40
68924;DHT22;55961;52.156;20.942;2024-01-30T08:41:51;1.20;90.70
68924;DHT22;55961;52.156;20.942;2024-01-30T08:44:17;1.30;90.30
68924;DHT22;55961;52.156;20.942;2024-01-30T08:46:46;1.40;89.60
68924;DHT22;55961;52.156;20.942;2024-01-30T08:49:12;1.50;89.50
68924;DHT22;55961;52.156;20.942;2024-01-30T08:51:39;1.60;89.10
68924;DHT22;55961;52.156;20.942;2024-01-30T08:54:05;1.70;88.50
68924;DHT22;55961;52.156;20.942;2024-01-30T08:56:31;1.80;88.30
68924;DHT22;55961;52.156;20.942;2024-01-30T08:58:57;1.90;87.50
68924;DHT22;55961;52.156;20.942;2024-01-30T09:01:24;2.00;87.10
68924;DHT22;55961;52.156;20.942;2024-01-30T09:03:50;2.00;87.00
68924;DHT22;55961;52.156;20.942;2024-01-30T09:06:16;2.10;86.10
68924;DHT22;55961;52.156;20.942;2024-01-30T09:08:42;2.20;85.30
68924;DHT22;55961;52.156;20.942;2024-01-30T09:11:10;2.30;85.10
68924;DHT22;55961;52.156;20.942;2024-01-30T09:13:36;2.40;83.60
68924;DHT22;55961;52.156;20.942;2024-01-30T09:16:03;2.50;83.90
68924;DHT22;55961;52.156;20.942;2024-01-30T09:18:29;2.60;83.90
68924;DHT22;55961;52.156;20.942;2024-01-30T09:20:55;2.70;83.70
68924;DHT22;55961;52.156;20.942;2024-01-30T09:23:21;2.80;83.40
68924;DHT22;55961;52.156;20.942;2024-01-30T09:25:47;2.80;82.70
68924;DHT22;55961;52.156;20.942;2024-01-30T09:28:14;2.90;81.40
68924;DHT22;55961;52.156;20.942;2024-01-30T09:30:40;3.00;81.50
68924;DHT22;55961;52.156;20.942;2024-01-30T09:33:06;3.10;81.60
68924;DHT22;55961;52.156;20.942;2024-01-30T09:35:33;3.20;80.60
68924;DHT22;55961;52.156;20.942;2024-01-30T09:37:59;3.30;80.50
68924;DHT22;55961;52.156;20.942;2024-01-30T09:40:25;3.40;80.00
68924;DHT22;55961;52.156;20.942;2024-01-30T09:42:51;3.50;80.20
68924;DHT22;55961;52.156;20.942;2024-01-30T09:45:18;3.70;80.50
68924;DHT22;55961;52.156;20.942;2024-01-30T09:47:45;3.80;80.70
68924;DHT22;55961;52.156;20.942;2024-01-30T09:50:15;4.00;80.00
68924;DHT22;55961;52.156;20.942;2024-01-30T09:52:41;4.20;79.00
68924;DHT22;55961;52.156;20.942;2024-01-30T09:55:08;4.30;77.90
68924;DHT22;55961;52.156;20.942;2024-01-30T09:57:35;4.50;76.60
68924;DHT22;55961;52.156;20.942;2024-01-30T10:00:05;4.80;75.70
68924;DHT22;55961;52.156;20.942;2024-01-30T10:02:35;4.90;73.80
68924;DHT22;55961;52.156;20.942;2024-01-30T10:05:02;5.10;73.90
68924;DHT22;55961;52.156;20.942;2024-01-30T10:07:28;5.30;73.80
68924;DHT22;55961;52.156;20.942;2024-01-30T10:09:54;5.50;73.40
68924;DHT22;55961;52.156;20.942;2024-01-30T10:12:22;5.70;70.90
68924;DHT22;55961;52.156;20.942;2024-01-30T10:14:49;5.90;70.60
68924;DHT22;55961;52.156;20.942;2024-01-30T10:17:14;6.10;69.60
68924;DHT22;55961;52.156;20.942;2024-01-30T10:19:41;6.20;68.70
68924;DHT22;55961;52.156;20.942;2024-01-30T10:22:08;6.40;67.60
68924;DHT22;55961;52.156;20.942;2024-01-30T10:24:35;6.50;67.40
68924;DHT22;55961;52.156;20.942;2024-01-30T10:27:01;6.60;67.10
68924;DHT22;55961;52.156;20.942;2024-01-30T10:29:27;6.80;68.10
68924;DHT22;55961;52.156;20.942;2024-01-30T10:32:01;7.00;68.60
68924;DHT22;55961;52.156;20.942;2024-01-30T10:34:28;7.20;65.40
68924;DHT22;55961;52.156;20.942;2024-01-30T10:37:09;7.30;62.80
68924;DHT22;55961;52.156;20.942;2024-01-30T10:39:45;7.40;61.40
68924;DHT22;55961;52.156;20.942;2024-01-30T10:45:06;7.50;61.60
68924;DHT22;55961;52.156;20.942;2024-01-30T10:47:35;7.60;60.10
68924;DHT22;55961;52.156;20.942;2024-01-30T10:50:05;7.70;59.10
68924;DHT22;55961;52.156;20.942;2024-01-30T10:52:32;7.80;58.50
68924;DHT22;55961;52.156;20.942;2024-01-30T10:54:58;7.80;58.10
68924;DHT22;55961;52.156;20.942;2024-01-30T10:57:28;7.80;58.20
68924;DHT22;55961;52.156;20.942;2024-01-30T10:59:57;7.90;57.80
68924;DHT22;55961;52.156;20.942;2024-01-30T11:02:24;7.90;57.70
68924;DHT22;55961;52.156;20.942;2024-01-30T11:04:57;8.00;58.80
68924;DHT22;55961;52.156;20.942;2024-01-30T11:07:25;8.10;57.80
68924;DHT22;55961;52.156;20.942;2024-01-30T11:10:03;8.20;57.10
68924;DHT22;55961;52.156;20.942;2024-01-30T11:12:31;8.30;57.90
68924;DHT22;55961;52.156;20.942;2024-01-30T11:20:27;8.50;54.70
68924;DHT22;55961;52.156;20.942;2024-01-30T11:22:56;8.70;56.40
68924;DHT22;55961;52.156;20.942;2024-01-30T11:25:23;8.80;56.20
68924;DHT22;55961;52.156;20.942;2024-01-30T11:27:51;8.80;55.30
68924;DHT22;55961;52.156;20.942;2024-01-30T11:30:31;8.90;53.90
68924;DHT22;55961;52.156;20.942;2024-01-30T11:33:07;9.00;54.10
68924;DHT22;55961;52.156;20.942;2024-01-30T11:35:35;9.00;55.00
68924;DHT22;55961;52.156;20.942;2024-01-30T11:38:03;9.00;55.30
68924;DHT22;55961;52.156;20.942;2024-01-30T11:40:30;9.10;54.20
68924;DHT22;55961;52.156;20.942;2024-01-30T11:42:57;9.20;53.90
68924;DHT22;55961;52.156;20.942;2024-01-30T11:45:24;9.20;52.80
68924;DHT22;55961;52.156;20.942;2024-01-30T11:47:50;9.30;52.00
68924;DHT22;55961;52.156;20.942;2024-01-30T11:50:16;9.30;53.20
68924;DHT22;55961;52.156;20.942;2024-01-30T11:52:42;9.40;54.40
68924;DHT22;55961;52.156;20.942;2024-01-30T11:55:09;9.50;52.70
68924;DHT22;55961;52.156;20.942;2024-01-30T11:57:36;9.50;53.30
68924;DHT22;55961;52.156;20.942;2024-01-30T12:00:04;9.50;52.70
68924;DHT22;55961;52.156;20.942;2024-01-30T12:02:39;9.60;53.60
68924;DHT22;55961;52.156;20.942;2024-01-30T12:05:06;9.50;54.00
68924;DHT22;55961;52.156;20.942;2024-01-30T12:07:36;9.60;50.80
68924;DHT22;55961;52.156;20.942;2024-01-30T12:10:02;9.50;52.50
68924;DHT22;55961;52.156;20.942;2024-01-30T12:12:29;9.50;52.30
68924;DHT22;55961;52.156;20.942;2024-01-30T12:14:55;9.50;52.80
68924;DHT22;55961;52.156;20.942;2024-01-30T12:17:29;9.50;51.80
68924;DHT22;55961;52.156;20.942;2024-01-30T12:20:11;9.50;51.80
68924;DHT22;55961;52.156;20.942;2024-01-30T12:22:48;9.50;51.80
68924;DHT22;55961;52.156;20.942;2024-01-30T12:25:19;9.40;52.50
68924;DHT22;55961;52.156;20.942;2024-01-30T12:27:47;9.40;52.70
68924;DHT22;55961;52.156;20.942;2024-01-30T12:30:17;9.40;52.60
68924;DHT22;55961;52.156;20.942;2024-01-30T12:32:45;9.40;52.40
68924;DHT22;55961;52.156;20.942;2024-01-30T12:35:12;9.50;51.50
68924;DHT22;55961;52.156;20.942;2024-01-30T12:37:39;9.50;51.50
68924;DHT22;55961;52.156;20.942;2024-01-30T12:40:05;9.50;51.70
68924;DHT22;55961;52.156;20.942;2024-01-30T12:42:32;9.50;51.70
68924;DHT22;55961;52.156;20.942;2024-01-30T12:44:58;9.50;51.80
68924;DHT22;55961;52.156;20.942;2024-01-30T12:47:27;9.50;51.10
68924;DHT22;55961;52.156;20.942;2024-01-30T12:49:52;9.60;51.60
68924;DHT22;55961;52.156;20.942;2024-01-30T12:52:20;9.60;51.10
68924;DHT22;55961;52.156;20.942;2024-01-30T12:54:47;9.60;50.80
68924;DHT22;55961;52.156;20.942;2024-01-30T12:57:13;9.60;51.40
68924;DHT22;55961;52.156;20.942;2024-01-30T12:59:39;9.60;51.60
68924;DHT22;55961;52.156;20.942;2024-01-30T13:02:07;9.50;51.80
68924;DHT22;55961;52.156;20.942;2024-01-30T13:04:33;9.50;51.30
68924;DHT22;55961;52.156;20.942;2024-01-30T13:06:59;9.50;52.10
68924;DHT22;55961;52.156;20.942;2024-01-30T13:09:26;9.50;51.70
68924;DHT22;55961;52.156;20.942;2024-01-30T13:11:52;9.50;51.50
68924;DHT22;55961;52.156;20.942;2024-01-30T13:14:19;9.50;51.50
68924;DHT22;55961;52.156;20.942;2024-01-30T13:16:45;9.50;51.90
68924;DHT22;55961;52.156;20.942;2024-01-30T13:19:11;9.50;51.00
68924;DHT22;55961;52.156;20.942;2024-01-30T13:21:37;9.50;52.50
68924;DHT22;55961;52.156;20.942;2024-01-30T13:24:04;9.50;51.80
68924;DHT22;55961;52.156;20.942;2024-01-30T13:26:32;9.40;51.10
68924;DHT22;55961;52.156;20.942;2024-01-30T13:28:57;9.40;51.40
68924;DHT22;55961;52.156;20.942;2024-01-30T13:31:24;9.30;51.80
68924;DHT22;55961;52.156;20.942;2024-01-30T13:33:49;9.20;52.00
68924;DHT22;55961;52.156;20.942;2024-01-30T13:36:15;9.10;53.00
68924;DHT22;55961;52.156;20.942;2024-01-30T13:38:41;9.00;52.60
68924;DHT22;55961;52.156;20.942;2024-01-30T13:41:07;8.90;52.90
68924;DHT22;55961;52.156;20.942;2024-01-30T13:43:33;8.80;53.20
68924;DHT22;55961;52.156;20.942;2024-01-30T13:46:02;8.70;53.30
68924;DHT22;55961;52.156;20.942;2024-01-30T13:48:28;8.60;53.40
68924;DHT22;55961;52.156;20.942;2024-01-30T13:50:55;8.50;53.70
68924;DHT22;55961;52.156;20.942;2024-01-30T13:53:21;8.40;53.90
68924;DHT22;55961;52.156;20.942;2024-01-30T13:55:47;8.30;54.20
68924;DHT22;55961;52.156;20.942;2024-01-30T13:58:13;8.20;54.40
68924;DHT22;55961;52.156;20.942;2024-01-30T14:00:39;8.20;55.10
68924;DHT22;55961;52.156;20.942;2024-01-30T14:03:05;8.10;56.10
68924;DHT22;55961;52.156;20.942;2024-01-30T14:05:31;8.00;56.40
68924;DHT22;55961;52.156;20.942;2024-01-30T14:07:58;8.00;56.00
68924;DHT22;55961;52.156;20.942;2024-01-30T14:10:25;8.00;55.70
68924;DHT22;55961;52.156;20.942;2024-01-30T14:12:51;7.90;55.70
68924;DHT22;55961;52.156;20.942;2024-01-30T14:15:18;7.80;55.70
68924;DHT22;55961;52.156;20.942;2024-01-30T14:17:44;7.70;56.10
68924;DHT22;55961;52.156;20.942;2024-01-30T14:20:11;7.70;56.50
68924;DHT22;55961;52.156;20.942;2024-01-30T14:22:37;7.60;56.40
68924;DHT22;55961;52.156;20.942;2024-01-30T14:25:03;7.60;56.70
68924;DHT22;55961;52.156;20.942;2024-01-30T14:27:30;7.50;56.50
68924;DHT22;55961;52.156;20.942;2024-01-30T14:29:56;7.50;56.90
68924;DHT22;55961;52.156;20.942;2024-01-30T14:32:23;7.40;57.30
68924;DHT22;55961;52.156;20.942;2024-01-30T14:34:50;7.40;57.50
68924;DHT22;55961;52.156;20.942;2024-01-30T14:37:16;7.30;57.70
68924;DHT22;55961;52.156;20.942;2024-01-30T14:39:42;7.30;57.70
68924;DHT22;55961;52.156;20.942;2024-01-30T14:42:08;7.30;57.80
68924;DHT22;55961;52.156;20.942;2024-01-30T14:44:34;7.20;58.10
68924;DHT22;55961;52.156;20.942;2024-01-30T14:47:00;7.20;58.20
68924;DHT22;55961;52.156;20.942;2024-01-30T14:49:28;7.10;58.50
68924;DHT22;55961;52.156;20.942;2024-01-30T14:51:53;7.00;58.90
68924;DHT22;55961;52.156;20.942;2024-01-30T14:54:19;7.00;58.90
68924;DHT22;55961;52.156;20.942;2024-01-30T14:56:46;6.90;59.10
68924;DHT22;55961;52.156;20.942;2024-01-30T14:59:12;6.90;59.30
68924;DHT22;55961;52.156;20.942;2024-01-30T15:01:38;6.80;59.40
68924;DHT22;55961;52.156;20.942;2024-01-30T15:04:04;6.80;59.40
68924;DHT22;55961;52.156;20.942;2024-01-30T15:06:30;6.70;59.60
68924;DHT22;55961;52.156;20.942;2024-01-30T15:08:56;6.70;59.70
68924;DHT22;55961;52.156;20.942;2024-01-30T15:11:22;6.60;60.00
68924;DHT22;55961;52.156;20.942;2024-01-30T15:13:48;6.50;60.00
68924;DHT22;55961;52.156;20.942;2024-01-30T15:16:16;6.50;60.10
68924;DHT22;55961;52.156;20.942;2024-01-30T15:18:42;6.40;60.30
68924;DHT22;55961;52.156;20.942;2024-01-30T15:21:07;6.30;60.20
68924;DHT22;55961;52.156;20.942;2024-01-30T15:23:34;6.30;60.20
68924;DHT22;55961;52.156;20.942;2024-01-30T15:25:59;6.20;60.30
68924;DHT22;55961;52.156;20.942;2024-01-30T15:28:36;6.20;60.70